createdAt,value
2023-05-03T00:00:48.442Z,13.58
2023-05-03T00:10:59.277Z,13.55
2023-05-03T00:21:01.006Z,13.58
2023-05-03T00:31:11.271Z,13.53
2023-05-03T00:41:13.668Z,13.50
2023-05-03T00:51:16.399Z,13.41
2023-05-03T01:01:19.097Z,13.22
2023-05-03T01:11:27.533Z,13.24
2023-05-03T01:21:31.081Z,13.23
2023-05-03T01:31:44.013Z,13.32
2023-05-03T01:41:46.129Z,13.23
2023-05-03T01:51:51.763Z,13.24
2023-05-03T02:01:53.415Z,13.20
2023-05-03T02:11:55.422Z,13.11
2023-05-03T02:21:57.039Z,13.10
2023-05-03T02:31:59.775Z,13.08
2023-05-03T02:42:03.400Z,13.07
2023-05-03T02:52:06.135Z,13.10
2023-05-03T03:02:09.809Z,13.14
2023-05-03T03:12:11.536Z,12.98
2023-05-03T03:22:13.158Z,13.02
2023-05-03T03:32:17.495Z,12.99
2023-05-03T03:42:20.918Z,13.06
2023-05-03T03:52:22.921Z,13.18
2023-05-03T04:02:25.063Z,13.09
2023-05-03T04:12:34.149Z,13.23
2023-05-03T04:22:39.224Z,13.37
2023-05-03T04:32:43.172Z,13.46
2023-05-03T04:42:48.082Z,13.62
2023-05-03T04:52:49.864Z,13.78
2023-05-03T05:02:55.234Z,13.82
2023-05-03T05:12:58.061Z,14.22
2023-05-03T05:23:00.183Z,14.80
2023-05-03T05:33:07.429Z,15.40
2023-05-03T05:43:11.606Z,15.56
2023-05-03T05:53:13.380Z,15.94
2023-05-03T06:03:16.003Z,16.33
2023-05-03T06:13:17.786Z,16.62
2023-05-03T06:23:20.860Z,16.96
2023-05-03T06:33:22.545Z,17.61
2023-05-03T06:43:24.256Z,18.18
2023-05-03T06:53:26.156Z,18.99
2023-05-03T07:03:27.937Z,19.02
2023-05-03T07:13:29.991Z,19.43
2023-05-03T07:23:32.059Z,20.50
2023-05-03T07:33:37.639Z,20.59
2023-05-03T07:43:39.586Z,21.33
2023-05-03T07:53:41.524Z,22.00
2023-05-03T08:03:44.790Z,22.05
2023-05-03T08:13:46.609Z,22.25
2023-05-03T08:23:49.273Z,23.03
2023-05-03T08:33:58.785Z,22.84
2023-05-03T08:44:01.398Z,24.09
2023-05-03T08:54:03.569Z,23.89
2023-05-03T09:04:06.153Z,23.76
2023-05-03T09:14:14.691Z,24.17
2023-05-03T09:24:23.094Z,25.27
2023-05-03T09:34:24.851Z,24.07
2023-05-03T09:44:44.580Z,23.25
2023-05-03T09:54:46.632Z,22.84
2023-05-03T10:04:57.255Z,24.09
2023-05-03T10:15:01.640Z,24.73
2023-05-03T10:25:11.504Z,26.08
2023-05-03T10:35:16.598Z,24.18
2023-05-03T10:45:31.712Z,22.63
2023-05-03T10:55:34.182Z,23.08
2023-05-03T11:05:38.301Z,23.48
2023-05-03T11:15:41.198Z,23.39
2023-05-03T11:25:43.066Z,22.95
2023-05-03T11:35:44.866Z,22.80
2023-05-03T11:45:48.361Z,22.61
2023-05-03T11:55:53.935Z,21.89
2023-05-03T12:05:57.485Z,21.40
2023-05-03T12:26:10.147Z,21.45
2023-05-03T12:36:14.596Z,21.81
2023-05-03T12:46:32.207Z,21.48
2023-05-03T12:56:39.766Z,20.95
2023-05-03T13:06:43.850Z,20.57
2023-05-03T13:16:50.197Z,20.60
2023-05-03T13:26:51.960Z,20.96
2023-05-03T13:36:53.672Z,21.53
2023-05-03T13:46:57.444Z,22.17
2023-05-03T13:56:59.430Z,22.36
2023-05-03T14:07:10.106Z,22.47
2023-05-03T14:17:12.207Z,22.30
2023-05-03T14:27:15.223Z,23.02
2023-05-03T14:37:23.242Z,22.23
2023-05-03T14:47:28.244Z,20.66
2023-05-03T14:57:34.392Z,20.03
2023-05-03T15:07:38.146Z,20.17
2023-05-03T15:17:39.918Z,20.01
2023-05-03T15:27:42.637Z,19.79
2023-05-03T15:37:44.413Z,19.80
2023-05-03T15:47:47.126Z,19.45
2023-05-03T15:57:48.805Z,19.59
2023-05-03T16:07:51.017Z,19.31
2023-05-03T16:18:01.295Z,18.91
2023-05-03T16:28:03.198Z,18.65
2023-05-03T16:38:04.757Z,18.29
2023-05-03T16:48:09.091Z,17.91
2023-05-03T16:58:12.416Z,17.89
2023-05-03T17:08:15.500Z,17.68
2023-05-03T17:18:17.365Z,17.23
2023-05-03T17:28:21.051Z,16.80
2023-05-03T17:38:23.472Z,16.39
2023-05-03T17:48:25.110Z,15.95
2023-05-03T17:58:29.192Z,15.75
2023-05-03T18:08:33.512Z,15.54
2023-05-03T18:18:35.511Z,15.40
2023-05-03T18:28:41.309Z,15.34
2023-05-03T18:38:53.996Z,15.21
2023-05-03T18:48:57.611Z,15.12
2023-05-03T18:59:00.140Z,15.02
2023-05-03T19:09:02.850Z,14.94
2023-05-03T19:19:12.654Z,14.69
2023-05-03T19:29:14.936Z,14.41
2023-05-03T19:39:18.593Z,14.41
2023-05-03T19:49:24.013Z,14.45
2023-05-03T19:59:25.760Z,14.39
2023-05-03T20:09:29.870Z,14.31
2023-05-03T20:19:32.779Z,14.35
2023-05-03T20:29:36.263Z,14.34
2023-05-03T20:39:47.277Z,14.40
2023-05-03T20:49:48.990Z,14.47
2023-05-03T20:59:51.300Z,14.34
2023-05-03T21:09:52.969Z,14.33
2023-05-03T21:19:54.644Z,14.21
2023-05-03T21:29:56.246Z,14.15
2023-05-03T21:40:02.048Z,13.99
2023-05-03T21:50:08.024Z,13.86
2023-05-03T22:00:16.818Z,13.66
2023-05-03T22:10:20.680Z,13.70
2023-05-03T22:20:23.406Z,13.68
2023-05-03T22:30:32.460Z,13.52
2023-05-03T22:40:34.232Z,13.33
2023-05-03T22:50:36.135Z,13.10
2023-05-03T23:00:38.631Z,13.04
2023-05-03T23:10:42.102Z,13.12
2023-05-03T23:20:45.158Z,13.04
2023-05-03T23:30:48.856Z,13.03
2023-05-03T23:40:52.821Z,12.97
2023-05-03T23:50:54.659Z,12.59
